»·PEaware :: N32FD KSBP-KAJO

N32FD :: KSBP-KAJO

FLIGHT INFORMATION

Flight Status: Arrived
Operator: Privately registered:
United States
More flights under this callsign
Pilot: Joe C. (32102)
Aircraft: AERMACCHI WARRIOR
(F260)
More flights by this aircraft type
Origin: KSBP San Luis Co Regl
United States
Destination: KAJO Corona Mun
United States
More flights between these airports :: More routes between these airports
Route:
File this flight plan on PilotEdge
Remarks:
Altitude:
(Current/Filed)
7,500ft
Speed:
(Current/Filed)
150kts
Departed: 13-Jan-21 05:32 PM
Arrived: 13-Jan-21 06:39 PM
Distance/Time
Traveled:
170nm/1:06
Distance/Time
To Go:
Arrived

Flight Plot

Page will automatically refresh every two minutes.

Flight plan parsing failed; only flown route is shown


Map Options




Map Legend


Flown Route
Filed Route
Departure Airport
Arrival Airport
Navaid (VOR, NDB)
Fix

Horizontal Profiles

Position Reports

Time Latitude Longitude Heading Altitude Ground
Speed
13-Jan-21 17:25 35.240747 -120.644640 126 186ft 0kts
13-Jan-21 17:26 35.239698 -120.643261 124 186ft 20kts
13-Jan-21 17:27 35.235541 -120.635952 124 186ft 24kts
13-Jan-21 17:28 35.233099 -120.632218 213 186ft 0kts
13-Jan-21 17:29 35.233099 -120.632218 213 186ft 0kts
13-Jan-21 17:30 35.233737 -120.634615 304 186ft 40kts
13-Jan-21 17:31 35.236269 -120.655856 158 1377ft 112kts
13-Jan-21 17:32 35.211720 -120.635706 149 3182ft 112kts
13-Jan-21 17:33 35.182800 -120.617041 152 4469ft 120kts
13-Jan-21 17:34 35.152079 -120.600208 168 5661ft 125kts
13-Jan-21 17:36 35.125562 -120.574107 128 6707ft 132kts
13-Jan-21 17:37 35.100072 -120.540400 128 7821ft 136kts
13-Jan-21 17:38 35.078498 -120.503454 118 8909ft 134kts
13-Jan-21 17:39 35.057100 -120.463158 118 9511ft 161kts
13-Jan-21 17:40 35.031320 -120.413905 118 9567ft 179kts
13-Jan-21 17:41 35.004131 -120.361861 118 9566ft 183kts
13-Jan-21 17:42 34.976635 -120.309164 119 9565ft 183kts
13-Jan-21 17:43 34.949205 -120.256717 119 9566ft 183kts
13-Jan-21 17:44 34.922333 -120.205323 119 9572ft 177kts
13-Jan-21 17:45 34.895664 -120.154577 119 9584ft 176kts
13-Jan-21 17:46 34.869627 -120.104338 117 9595ft 174kts
13-Jan-21 17:47 34.844102 -120.054118 117 9592ft 175kts
13-Jan-21 17:48 34.818524 -120.003939 118 9588ft 174kts
13-Jan-21 17:49 34.793106 -119.953822 117 9574ft 173kts
13-Jan-21 17:50 34.767827 -119.903955 117 9559ft 173kts
13-Jan-21 17:51 34.742638 -119.854340 117 9544ft 172kts
13-Jan-21 17:52 34.717403 -119.804682 117 9527ft 173kts
13-Jan-21 17:53 34.692212 -119.754989 117 9526ft 172kts
13-Jan-21 17:53 34.671271 -119.713728 117 9526ft 172kts
13-Jan-21 17:55 34.641965 -119.656049 117 9528ft 171kts
13-Jan-21 17:55 34.621185 -119.614817 117 9526ft 172kts
13-Jan-21 17:57 34.592223 -119.557071 117 9528ft 172kts
13-Jan-21 17:57 34.573707 -119.514511 111 9525ft 171kts
13-Jan-21 17:58 34.553241 -119.462374 111 9527ft 171kts
13-Jan-21 17:59 34.532771 -119.410299 111 9527ft 170kts
13-Jan-21 18:00 34.512709 -119.358002 108 9528ft 170kts
13-Jan-21 18:01 34.494687 -119.304900 108 9527ft 170kts
13-Jan-21 18:02 34.476778 -119.251719 108 9527ft 170kts
13-Jan-21 18:03 34.458948 -119.198730 108 9527ft 169kts
13-Jan-21 18:04 34.441122 -119.145741 108 9527ft 169kts
13-Jan-21 18:05 34.423533 -119.092692 108 9527ft 169kts
13-Jan-21 18:06 34.406009 -119.039710 108 9527ft 169kts
13-Jan-21 18:07 34.389212 -118.986486 106 9525ft 169kts
13-Jan-21 18:08 34.373403 -118.932756 106 9523ft 169kts
13-Jan-21 18:09 34.357722 -118.879172 106 9521ft 169kts
13-Jan-21 18:10 34.341966 -118.825334 106 9519ft 169kts
13-Jan-21 18:11 34.326188 -118.771425 106 9518ft 169kts
13-Jan-21 18:12 34.310539 -118.717664 106 9518ft 169kts
13-Jan-21 18:13 34.294827 -118.663912 106 9518ft 169kts
13-Jan-21 18:14 34.279146 -118.609945 106 9518ft 169kts
13-Jan-21 18:15 34.264536 -118.555946 104 9518ft 169kts
13-Jan-21 18:16 34.250661 -118.501605 104 9518ft 168kts
13-Jan-21 18:17 34.237656 -118.447187 102 9518ft 168kts
13-Jan-21 18:18 34.225365 -118.392595 102 9518ft 168kts
13-Jan-21 18:19 34.213269 -118.337781 102 9518ft 168kts
13-Jan-21 18:20 34.201291 -118.282987 102 9518ft 168kts
13-Jan-21 18:21 34.189337 -118.228123 102 9518ft 168kts
13-Jan-21 18:22 34.177412 -118.173519 102 9518ft 168kts
13-Jan-21 18:23 34.165490 -118.118886 102 9518ft 168kts
13-Jan-21 18:24 34.153511 -118.063973 102 9520ft 168kts
13-Jan-21 18:25 34.141617 -118.009444 102 9529ft 168kts
13-Jan-21 18:26 34.129728 -117.954820 102 9535ft 168kts
13-Jan-21 18:27 34.117849 -117.900182 102 9536ft 168kts
13-Jan-21 18:28 34.103846 -117.844305 108 9180ft 182kts
13-Jan-21 18:29 34.083552 -117.788784 120 8588ft 185kts
13-Jan-21 18:30 34.056166 -117.736459 121 7987ft 184kts
13-Jan-21 18:31 34.028268 -117.685078 124 7422ft 182kts
13-Jan-21 18:32 33.993251 -117.641599 139 6852ft 181kts
13-Jan-21 18:33 33.945218 -117.616426 173 5633ft 187kts
13-Jan-21 18:34 33.897134 -117.618386 179 4440ft 196kts
13-Jan-21 18:35 33.873767 -117.569589 91 2337ft 169kts
13-Jan-21 18:36 33.897933 -117.579727 262 1128ft 95kts
13-Jan-21 18:37 33.897653 -117.604278 268 536ft 43kts
13-Jan-21 18:38 33.896820 -117.606163 95 536ft 1kts
13-Jan-21 18:39 33.896820 -117.606163 95 536ft 0kts
13-Jan-21 18:40 33.896820 -117.606163 95 536ft 0kts
13-Jan-21 18:41 33.896820 -117.606163 95 536ft 0kts
13-Jan-21 18:42 33.896820 -117.606163 95 536ft 0kts
13-Jan-21 18:43 33.896820 -117.606163 95 536ft 0kts
13-Jan-21 18:44 33.896820 -117.606163 95 536ft 0kts
13-Jan-21 18:45 33.896820 -117.606163 95 536ft 0kts
13-Jan-21 18:46 33.896820 -117.606163 95 536ft 0kts
13-Jan-21 18:47 33.896820 -117.606163 95 536ft 0kts
13-Jan-21 18:48 33.896820 -117.606163 95 536ft 0kts
13-Jan-21 18:49 33.896820 -117.606163 95 536ft 0kts
13-Jan-21 18:50 33.896820 -117.606163 95 536ft 0kts
13-Jan-21 18:51 33.896820 -117.606163 95 536ft 0kts
13-Jan-21 18:52 33.896820 -117.606163 95 536ft 0kts

Navigation Log

Ident Type
Flight plan parsing failed, navigation log unavailable